Time;durP1;ratioP1;P1;durP2;ratioP2;P2;SDS_P1;SDS_P2;PMS_P1;PMS_P2;Temp;Humidity;BMP_temperature;BMP_pressure;BME280_temperature;BME280_humidity;BME280_pressure;Samples;Min_cycle;Max_cycle;Signal;HPM_P1;HPM_P2
2022/10/21 00:01:20;;;;;;;3.60;0.70;;;;;;;7.20;100.00;101484.75;4938886;29;20520;-70
2022/10/21 00:03:45;;;;;;;3.42;0.80;;;;;;;7.23;100.00;101471.06;4956139;29;20114;-70
2022/10/21 00:06:10;;;;;;;1.65;0.80;;;;;;;7.25;100.00;101466.38;4956538;28;20043;-70
2022/10/21 00:08:37;;;;;;;1.80;0.60;;;;;;;7.20;100.00;101463.34;4939557;29;20379;-70
2022/10/21 00:11:24;;;;;;;3.53;0.80;;;;;;;7.26;100.00;101467.22;4939168;29;20478;-70
2022/10/21 00:13:49;;;;;;;2.67;0.70;;;;;;;7.29;100.00;101472.25;4934737;29;20054;-70
2022/10/21 00:16:17;;;;;;;2.25;0.70;;;;;;;7.33;100.00;101462.06;4934945;29;20044;-70
2022/10/21 00:18:44;;;;;;;2.40;0.90;;;;;;;7.25;100.00;101454.81;4918743;29;20569;-70
2022/10/21 00:21:16;;;;;;;3.28;0.77;;;;;;;7.25;100.00;101450.31;4934935;29;20036;-71
2022/10/21 00:23:42;;;;;;;3.00;0.90;;;;;;;7.28;100.00;101457.16;4934401;29;20071;-70
2022/10/21 00:26:10;;;;;;;2.20;0.75;;;;;;;7.32;100.00;101453.19;4918887;29;20085;-70
2022/10/21 00:28:36;;;;;;;1.38;0.70;;;;;;;7.36;100.00;101441.16;4915540;29;20044;-70
2022/10/21 00:31:04;;;;;;;3.05;0.70;;;;;;;7.29;100.00;101440.13;4910389;29;20047;-70
2022/10/21 00:33:29;;;;;;;4.47;1.02;;;;;;;7.27;100.00;101424.22;4934410;29;20067;-70
2022/10/21 00:36:01;;;;;;;3.50;0.68;;;;;;;7.38;100.00;101420.38;4918594;29;20043;-71
2022/10/21 00:38:28;;;;;;;2.55;0.80;;;;;;;7.33;100.00;101409.34;4918601;29;20102;-70
2022/10/21 00:40:54;;;;;;;2.33;0.82;;;;;;;7.37;100.00;101410.69;4915557;29;20036;-70
2022/10/21 00:43:19;;;;;;;1.65;0.70;;;;;;;7.37;100.00;101407.19;4928341;29;20035;-70
2022/10/21 00:46:06;;;;;;;2.67;0.70;;;;;;;7.34;100.00;101394.94;4936359;29;20050;-70
2022/10/21 00:48:40;;;;;;;2.45;0.82;;;;;;;7.17;100.00;101361.13;4896530;29;20504;-70
2022/10/21 00:51:10;;;;;;;1.30;0.70;;;;;;;7.33;100.00;101366.53;4896530;29;20533;-71
2022/10/21 00:53:38;;;;;;;3.22;0.80;;;;;;;7.23;100.00;101345.25;4896481;29;20532;-71
2022/10/21 00:56:09;;;;;;;1.83;0.65;;;;;;;7.21;100.00;101367.81;4896138;29;20048;-70
2022/10/21 00:58:36;;;;;;;2.65;0.90;;;;;;;7.20;100.00;101360.78;4896578;29;20036;-70
2022/10/21 01:01:04;;;;;;;1.88;0.88;;;;;;;7.24;100.00;101380.88;4896263;29;20037;-70
2022/10/21 01:03:33;;;;;;;2.40;0.60;;;;;;;7.35;100.00;101391.28;4896094;29;20040;-70
2022/10/21 01:06:02;;;;;;;4.28;0.80;;;;;;;7.36;100.00;101392.97;4895993;29;20497;-70
2022/10/21 01:08:28;;;;;;;1.77;0.70;;;;;;;7.30;100.00;101378.38;4896331;29;20036;-70
2022/10/21 01:10:54;;;;;;;5.32;1.48;;;;;;;7.17;100.00;101353.94;4880582;29;20432;-70
2022/10/21 01:13:57;;;;;;;3.20;0.77;;;;;;;7.22;100.00;101364.16;4896146;29;20080;-70
2022/10/21 01:16:47;;;;;;;3.03;0.80;;;;;;;7.18;100.00;101368.13;4867054;29;20567;-70
2022/10/21 01:19:13;;;;;;;2.20;0.70;;;;;;;7.15;100.00;101368.47;4895610;29;20044;-69
2022/10/21 01:22:07;;;;;;;5.47;0.80;;;;;;;7.12;100.00;101368.78;4896032;29;20115;-70
2022/10/21 01:24:47;;;;;;;2.58;0.98;;;;;;;7.06;100.00;101356.91;4868087;29;20028;-69
2022/10/21 01:27:24;;;;;;;3.25;0.90;;;;;;;7.14;100.00;101372.16;4880280;29;20481;-70
2022/10/21 01:30:03;;;;;;;3.25;0.80;;;;;;;7.09;100.00;101379.84;4895990;29;20066;-70
2022/10/21 01:32:29;;;;;;;2.13;0.60;;;;;;;7.13;100.00;101376.66;4876993;29;20551;-70
2022/10/21 01:35:17;;;;;;;4.47;1.08;;;;;;;7.10;100.00;101377.00;4886647;29;20048;-71
2022/10/21 01:38:10;;;;;;;1.23;0.75;;;;;;;7.02;100.00;101369.78;4859554;29;20042;-71
2022/10/21 01:40:48;;;;;;;3.28;0.80;;;;;;;6.92;100.00;101362.88;4914553;29;20090;-70
2022/10/21 01:43:20;;;;;;;2.53;0.80;;;;;;;7.04;100.00;101354.38;4914502;29;20550;-71
2022/10/21 01:45:55;;;;;;;2.60;0.80;;;;;;;6.96;100.00;101341.00;4914224;29;20104;-71
2022/10/21 01:48:31;;;;;;;2.92;0.90;;;;;;;6.89;100.00;101345.31;4895684;29;20040;-71
2022/10/21 01:51:01;;;;;;;3.38;0.70;;;;;;;6.92;100.00;101353.03;4887237;29;20419;-70
2022/10/21 01:53:30;;;;;;;4.82;0.70;;;;;;;6.98;100.00;101349.69;4895973;29;20044;-70
2022/10/21 01:55:58;;;;;;;1.00;0.68;;;;;;;6.94;100.00;101351.00;4896064;29;20036;-70
2022/10/21 01:58:28;;;;;;;2.78;0.60;;;;;;;6.83;100.00;101341.44;4912821;29;20044;-71
2022/10/21 02:00:57;;;;;;;4.80;1.05;;;;;;;6.77;100.00;101322.53;4914631;29;20028;-70
2022/10/21 02:03:27;;;;;;;1.48;0.60;;;;;;;6.92;100.00;101342.34;4914521;29;20192;-70
2022/10/21 02:05:54;;;;;;;6.07;0.80;;;;;;;6.82;100.00;101337.09;4913753;29;20581;-70
2022/10/21 02:08:20;;;;;;;2.65;0.75;;;;;;;6.91;100.00;101334.44;4926127;29;20078;-70
2022/10/21 02:10:48;;;;;;;1.38;0.70;;;;;;;6.81;100.00;101319.38;4936611;29;20106;-70
2022/10/21 02:13:21;;;;;;;1.60;0.70;;;;;;;6.73;100.00;101291.78;4936464;29;20039;-70
2022/10/21 02:15:49;;;;;;;3.08;0.80;;;;;;;6.72;100.00;101315.00;4954229;29;20286;-70
2022/10/21 02:18:32;;;;;;;1.73;0.70;;;;;;;6.86;100.00;101326.91;4937261;29;20565;-70
2022/10/21 02:21:02;;;;;;;2.00;0.70;;;;;;;6.86;100.00;101320.75;4936872;29;20097;-70
2022/10/21 02:23:47;;;;;;;1.55;0.73;;;;;;;6.86;100.00;101312.72;4936792;29;20060;-71
2022/10/21 02:26:13;;;;;;;2.47;0.82;;;;;;;6.85;100.00;101309.19;4938899;29;20042;-70
2022/10/21 02:28:39;;;;;;;4.10;0.88;;;;;;;6.83;100.00;101303.16;4953784;29;20043;-70
2022/10/21 02:31:35;;;;;;;2.53;0.93;;;;;;;6.82;100.00;101296.97;4953783;29;20035;-70
2022/10/21 02:34:14;;;;;;;3.30;0.85;;;;;;;6.79;100.00;101296.47;4936679;29;20414;-70
2022/10/21 02:36:48;;;;;;;0.98;0.50;;;;;;;6.81;100.00;101294.47;4936500;29;20031;-71
2022/10/21 02:39:22;;;;;;;1.73;0.73;;;;;;;6.77;100.00;101293.13;4953667;29;20039;-70
2022/10/21 02:41:50;;;;;;;2.75;0.90;;;;;;;6.75;100.00;101292.44;4936359;29;20501;-70
2022/10/21 02:44:15;;;;;;;2.03;0.75;;;;;;;6.74;100.00;101291.59;4953796;29;20114;-70
2022/10/21 02:46:43;;;;;;;2.65;0.85;;;;;;;6.75;100.00;101284.41;4936226;29;20122;-70
2022/10/21 02:49:08;;;;;;;3.08;0.85;;;;;;;6.59;100.00;101261.97;4953573;29;20110;-70
2022/10/21 02:51:34;;;;;;;5.15;1.05;;;;;;;6.76;100.00;101280.75;4953558;28;20119;-70
2022/10/21 02:54:00;;;;;;;3.55;0.88;;;;;;;6.68;100.00;101280.69;4953231;28;20062;-70
2022/10/21 02:56:26;;;;;;;4.20;0.88;;;;;;;6.25;100.00;101210.38;4953502;28;20057;-70
2022/10/21 02:58:51;;;;;;;3.47;1.00;;;;;;;6.73;100.00;101273.88;4936495;29;20027;-70
2022/10/21 03:01:17;;;;;;;1.30;0.65;;;;;;;6.71;100.00;101273.19;4953276;29;20122;-70
2022/10/21 03:03:42;;;;;;;2.22;0.77;;;;;;;6.70;100.00;101278.72;4953184;29;20399;-70
2022/10/21 03:06:08;;;;;;;5.15;1.02;;;;;;;6.75;100.00;101276.38;4936053;29;20491;-70
2022/10/21 03:08:33;;;;;;;3.83;1.20;;;;;;;6.68;100.00;101275.34;4936354;29;20039;-70
2022/10/21 03:10:59;;;;;;;3.38;1.10;;;;;;;6.73;100.00;101281.06;4936272;29;20066;-70
2022/10/21 03:13:24;;;;;;;2.88;0.75;;;;;;;6.74;100.00;101288.91;4936135;29;20036;-70
2022/10/21 03:15:50;;;;;;;2.13;0.80;;;;;;;6.79;100.00;101299.16;4920024;29;20114;-70
2022/10/21 03:18:16;;;;;;;2.88;0.98;;;;;;;6.72;100.00;101274.88;4936137;29;20038;-70
2022/10/21 03:20:41;;;;;;;3.00;0.88;;;;;;;6.73;100.00;101284.56;4953002;29;20062;-70
2022/10/21 03:23:07;;;;;;;2.15;0.90;;;;;;;6.85;100.00;101293.13;4953154;29;20042;-70
2022/10/21 03:25:32;;;;;;;1.55;0.90;;;;;;;6.68;100.00;101264.66;4916141;29;20066;-71
2022/10/21 03:27:58;;;;;;;2.35;1.05;;;;;;;6.87;100.00;101291.13;4935456;29;20065;-71
2022/10/21 03:30:23;;;;;;;3.45;1.00;;;;;;;6.86;100.00;101283.28;4935836;29;20047;-70
2022/10/21 03:32:48;;;;;;;3.90;1.10;;;;;;;6.89;100.00;101289.16;4916698;29;20499;-71
2022/10/21 03:35:14;;;;;;;2.38;0.90;;;;;;;6.74;100.00;101258.66;4928379;29;20118;-71
2022/10/21 03:37:39;;;;;;;2.05;0.95;;;;;;;6.86;100.00;101278.78;4953006;29;20038;-71
2022/10/21 03:40:05;;;;;;;3.60;1.05;;;;;;;6.91;100.00;101292.47;4935663;29;20410;-71
2022/10/21 03:42:31;;;;;;;3.10;0.75;;;;;;;6.91;100.00;101276.44;4927899;29;20035;-71
2022/10/21 03:44:56;;;;;;;2.25;1.20;;;;;;;6.93;100.00;101282.47;4935542;29;20035;-70
2022/10/21 03:47:22;;;;;;;2.25;1.00;;;;;;;6.93;100.00;101274.44;4952930;29;20031;-70
2022/10/21 03:49:47;;;;;;;2.53;0.95;;;;;;;6.73;100.00;101254.31;4952632;28;20430;-70
2022/10/21 03:52:12;;;;;;;1.35;0.90;;;;;;;6.87;100.00;101263.56;4935170;28;20070;-69
2022/10/21 03:54:38;;;;;;;1.58;1.13;;;;;;;6.83;100.00;101277.25;4947735;28;20053;-71
2022/10/21 03:57:04;;;;;;;4.55;1.00;;;;;;;6.67;100.00;101245.09;4928829;29;20039;-72
2022/10/21 03:59:29;;;;;;;2.97;1.20;;;;;;;6.69;100.00;101235.09;4944193;29;20032;-71
2022/10/21 04:01:55;;;;;;;5.35;1.20;;;;;;;6.90;100.00;101280.13;4929643;29;20402;-70
2022/10/21 04:04:20;;;;;;;2.33;1.20;;;;;;;6.92;100.00;101278.13;4927488;29;20031;-71
2022/10/21 04:06:46;;;;;;;3.97;1.10;;;;;;;6.87;100.00;101259.03;4952535;29;20065;-71
2022/10/21 04:09:11;;;;;;;2.80;1.05;;;;;;;6.80;100.00;101263.38;4935613;29;20047;-70
2022/10/21 04:11:36;;;;;;;2.97;1.15;;;;;;;6.81;100.00;101260.50;4932352;29;20095;-68
2022/10/21 04:14:02;;;;;;;4.00;1.30;;;;;;;6.84;100.00;101259.34;4928169;29;20071;-70
2022/10/21 04:16:27;;;;;;;4.35;1.13;;;;;;;6.88;100.00;101259.88;4943112;29;20486;-71
2022/10/21 04:18:53;;;;;;;2.67;1.15;;;;;;;6.89;100.00;101257.03;4930064;29;20039;-71
2022/10/21 04:21:18;;;;;;;3.25;1.10;;;;;;;6.86;100.00;101252.03;4927958;29;20554;-70
2022/10/21 04:23:44;;;;;;;5.75;1.20;;;;;;;6.86;100.00;101252.03;4944504;28;20039;-70
2022/10/21 04:26:10;;;;;;;4.15;1.30;;;;;;;6.82;100.00;101248.84;4940094;29;20027;-70
2022/10/21 04:28:35;;;;;;;3.05;1.05;;;;;;;6.86;100.00;101241.31;4935367;29;20518;-70
2022/10/21 04:31:01;;;;;;;3.97;1.35;;;;;;;6.80;100.00;101247.31;4952703;29;20465;-70
2022/10/21 04:33:26;;;;;;;2.85;1.30;;;;;;;6.87;100.00;101251.00;4915679;29;20043;-71
2022/10/21 04:35:57;;;;;;;5.85;2.30;;;;;;;6.89;100.00;101243.66;4949573;28;20082;-70
2022/10/21 04:38:23;;;;;;;5.22;1.58;;;;;;;6.90;100.00;101239.97;4955977;29;20078;-70
2022/10/21 04:40:58;;;;;;;4.82;2.30;;;;;;;6.94;100.00;101227.13;4919443;29;20122;-71
2022/10/21 04:43:23;;;;;;;5.53;1.30;;;;;;;6.93;100.00;101230.78;4923491;29;20451;-71
2022/10/21 04:45:49;;;;;;;5.60;1.58;;;;;;;6.93;100.00;101220.94;4922751;29;20039;-71
2022/10/21 04:48:14;;;;;;;1.95;1.10;;;;;;;7.00;100.00;101211.22;4955860;29;20023;-71
2022/10/21 04:50:40;;;;;;;4.13;1.85;;;;;;;6.81;100.00;101195.50;4937916;29;20027;-71
2022/10/21 04:53:05;;;;;;;3.00;1.50;;;;;;;6.90;100.00;101210.56;4954799;29;20043;-71
2022/10/21 04:55:30;;;;;;;4.65;1.40;;;;;;;6.95;100.00;101202.03;4938486;29;20039;-71
2022/10/21 04:57:56;;;;;;;6.55;1.50;;;;;;;6.85;100.00;101187.97;4920082;29;20039;-71
2022/10/21 05:00:21;;;;;;;2.72;1.77;;;;;;;6.93;100.00;101199.53;4938410;29;20047;-71
2022/10/21 05:02:47;;;;;;;3.88;1.80;;;;;;;6.88;100.00;101193.81;4955487;29;20167;-70
2022/10/21 05:05:12;;;;;;;3.15;1.30;;;;;;;6.74;100.00;101163.22;4955187;28;20035;-70
2022/10/21 05:07:37;;;;;;;5.18;1.40;;;;;;;6.89;100.00;101186.63;4922075;29;20035;-71
2022/10/21 05:10:03;;;;;;;5.35;1.65;;;;;;;6.90;100.00;101182.97;4921419;29;20039;-70
2022/10/21 05:12:32;;;;;;;4.70;1.50;;;;;;;6.95;100.00;101192.16;4955629;29;20098;-70
2022/10/21 05:14:59;;;;;;;4.60;1.70;;;;;;;6.96;100.00;101183.16;4955367;29;20027;-70
2022/10/21 05:17:25;;;;;;;3.58;1.40;;;;;;;7.05;100.00;101186.66;4955515;29;20372;-70
2022/10/21 05:19:50;;;;;;;4.63;1.58;;;;;;;7.09;100.00;101173.78;4937916;29;20074;-70
2022/10/21 05:22:16;;;;;;;4.88;1.88;;;;;;;7.05;100.00;101165.25;4937917;29;20055;-71
2022/10/21 05:24:41;;;;;;;3.60;1.52;;;;;;;7.05;100.00;101160.75;4918958;29;20048;-71
2022/10/21 05:27:06;;;;;;;4.32;1.70;;;;;;;6.95;100.00;101140.50;4946390;29;20043;-71
2022/10/21 05:29:32;;;;;;;4.13;1.75;;;;;;;7.02;100.00;101153.06;4955050;28;20055;-70
2022/10/21 05:31:57;;;;;;;7.38;1.98;;;;;;;7.00;100.00;101147.03;4937812;29;20043;-70
2022/10/21 05:34:22;;;;;;;6.00;2.10;;;;;;;6.99;100.00;101129.31;4955023;29;20068;-71
2022/10/21 05:36:48;;;;;;;5.85;1.95;;;;;;;6.38;100.00;101020.97;4937888;29;20117;-71
2022/10/21 05:39:15;;;;;;;4.93;2.45;;;;;;;6.79;100.00;101102.06;4955006;29;20482;-71
2022/10/21 05:41:40;;;;;;;6.75;2.30;;;;;;;7.09;100.00;101134.50;4937789;29;20035;-71
2022/10/21 05:44:05;;;;;;;5.97;2.55;;;;;;;7.14;100.00;101123.25;4920827;29;20036;-71
2022/10/21 05:46:31;;;;;;;8.40;2.92;;;;;;;7.16;100.00;101123.94;4954787;29;20043;-70
2022/10/21 05:48:59;;;;;;;8.48;3.28;;;;;;;7.15;100.00;101115.09;4936858;29;20058;-70
2022/10/21 05:51:25;;;;;;;5.72;3.40;;;;;;;7.22;100.00;101118.75;4938140;29;20051;-71
2022/10/21 05:53:54;;;;;;;7.68;3.40;;;;;;;7.26;100.00;101103.19;4954673;29;20568;-71
2022/10/21 05:56:21;;;;;;;10.55;3.40;;;;;;;7.33;100.00;101106.84;4937367;29;20035;-71
2022/10/21 05:58:47;;;;;;;5.32;2.97;;;;;;;7.34;100.00;101115.72;4954873;29;20070;-70
2022/10/21 06:01:12;;;;;;;5.72;3.13;;;;;;;7.40;100.00;101110.50;4921443;29;20494;-70
2022/10/21 06:03:38;;;;;;;11.27;3.35;;;;;;;7.23;100.00;101072.25;4954490;29;20050;-70
2022/10/21 06:06:06;;;;;;;7.72;3.05;;;;;;;7.41;100.00;101106.81;4954260;29;20039;-70
2022/10/21 06:08:34;;;;;;;7.65;3.60;;;;;;;7.42;100.00;101108.50;4936817;29;20078;-70
2022/10/21 06:11:04;;;;;;;8.55;3.65;;;;;;;7.44;100.00;101109.16;4954446;29;20162;-68
2022/10/21 06:13:30;;;;;;;6.57;3.60;;;;;;;7.46;100.00;101093.75;4954187;29;20524;-68
2022/10/21 06:15:56;;;;;;;6.43;3.22;;;;;;;7.47;100.00;101095.44;4954633;29;20047;-67
2022/10/21 06:18:21;;;;;;;8.15;3.80;;;;;;;7.49;100.00;101089.91;4954958;29;20035;-68
2022/10/21 06:20:47;;;;;;;8.40;3.75;;;;;;;7.45;100.00;101080.53;4954152;29;20110;-68
2022/10/21 06:23:14;;;;;;;6.55;3.83;;;;;;;7.57;100.00;101091.72;4917766;29;20056;-68
2022/10/21 06:25:39;;;;;;;9.35;4.03;;;;;;;7.57;100.00;101094.41;4949483;29;20050;-68
2022/10/21 06:28:05;;;;;;;8.07;3.97;;;;;;;7.60;100.00;101088.69;4936484;29;20035;-69
2022/10/21 06:30:30;;;;;;;12.13;4.30;;;;;;;7.61;100.00;101095.72;4936669;29;20150;-65
2022/10/21 06:32:56;;;;;;;10.27;4.07;;;;;;;7.57;100.00;101095.22;4954099;29;20035;-65
2022/10/21 06:35:21;;;;;;;9.57;4.10;;;;;;;7.60;100.00;101094.88;4953770;29;20046;-68
2022/10/21 06:37:47;;;;;;;10.65;4.07;;;;;;;7.59;100.00;101095.06;4953859;29;20133;-70
2022/10/21 06:40:12;;;;;;;9.75;4.28;;;;;;;7.60;100.00;101094.06;4937187;29;20035;-68
2022/10/21 06:42:38;;;;;;;7.53;4.20;;;;;;;7.63;100.00;101094.56;4954088;29;20063;-69
2022/10/21 06:45:04;;;;;;;9.90;4.40;;;;;;;7.62;100.00;101094.72;4920811;29;20113;-68
2022/10/21 06:47:29;;;;;;;9.00;4.53;;;;;;;7.65;100.00;101097.03;4953731;29;20443;-69
2022/10/21 06:49:54;;;;;;;8.27;4.50;;;;;;;7.61;100.00;101090.38;4936345;29;20538;-70
2022/10/21 06:52:20;;;;;;;8.07;4.45;;;;;;;7.58;100.00;101086.19;4936504;29;20038;-69
2022/10/21 06:54:45;;;;;;;8.00;4.75;;;;;;;7.66;100.00;101091.53;4918645;29;20506;-70
2022/10/21 06:57:11;;;;;;;9.18;4.10;;;;;;;7.53;100.00;101070.66;4945124;29;20039;-69
2022/10/21 06:59:36;;;;;;;8.18;4.68;;;;;;;7.69;100.00;101099.22;4953285;28;20517;-68
2022/10/21 07:02:01;;;;;;;10.65;4.10;;;;;;;7.76;100.00;101096.69;4953033;28;20170;-68
2022/10/21 07:04:27;;;;;;;8.40;4.50;;;;;;;7.70;100.00;101103.56;4936332;29;20042;-68
2022/10/21 07:06:53;;;;;;;14.43;5.25;;;;;;;7.80;100.00;101106.03;4953418;29;20035;-68
2022/10/21 07:09:18;;;;;;;11.15;4.85;;;;;;;7.78;100.00;101105.38;4936032;29;20118;-68
2022/10/21 07:11:43;;;;;;;11.25;4.90;;;;;;;7.86;100.00;101105.34;4953405;28;20542;-68
2022/10/21 07:14:11;;;;;;;8.82;4.15;;;;;;;7.88;100.00;101108.69;4920243;29;20042;-68
2022/10/21 07:16:36;;;;;;;11.25;4.88;;;;;;;7.84;100.00;101112.72;4953256;29;20035;-68
2022/10/21 07:19:03;;;;;;;11.10;5.22;;;;;;;7.95;100.00;101111.50;4953180;29;20183;-67
2022/10/21 07:21:29;;;;;;;8.77;5.07;;;;;;;7.91;100.00;101116.38;4953515;29;20572;-68
2022/10/21 07:23:56;;;;;;;10.77;5.03;;;;;;;7.93;100.00;101117.03;4935663;29;20031;-69
2022/10/21 07:26:22;;;;;;;9.85;4.78;;;;;;;7.76;100.00;101088.66;4953125;29;20046;-68
2022/10/21 07:28:48;;;;;;;13.80;5.32;;;;;;;8.00;100.00;101115.31;4952776;29;20051;-68
2022/10/21 07:31:34;;;;;;;11.95;4.90;;;;;;;7.92;100.00;101115.38;4917316;29;20467;-68
2022/10/21 07:34:01;;;;;;;12.70;5.30;;;;;;;7.91;100.00;101116.38;4894621;29;20076;-67
2022/10/21 07:36:29;;;;;;;12.82;5.43;;;;;;;7.94;100.00;101107.16;4912968;29;20043;-67
2022/10/21 07:38:58;;;;;;;10.07;5.18;;;;;;;7.94;100.00;101107.97;4912316;29;20047;-68
2022/10/21 07:41:36;;;;;;;13.18;5.63;;;;;;;7.96;100.00;101105.13;4912685;29;20043;-68
2022/10/21 07:44:02;;;;;;;7.32;5.00;;;;;;;8.02;100.00;101109.81;4895262;29;20155;-65
2022/10/21 07:46:28;;;;;;;10.07;5.50;;;;;;;7.83;100.00;101078.91;4895876;29;20032;-68
2022/10/21 07:48:53;;;;;;;11.45;5.78;;;;;;;8.08;100.00;101111.78;4892454;29;20052;-64
2022/10/21 07:51:21;;;;;;;10.20;5.47;;;;;;;8.03;100.00;101083.84;4888206;29;20036;-63
2022/10/21 07:53:52;;;;;;;10.38;5.68;;;;;;;8.15;100.00;101104.72;4911657;29;20052;-63
2022/10/21 07:56:21;;;;;;;12.18;5.78;;;;;;;8.14;100.00;101108.38;4897127;29;20180;-64
2022/10/21 07:58:46;;;;;;;14.80;5.50;;;;;;;8.17;100.00;101110.72;4911924;29;20040;-66
2022/10/21 08:01:34;;;;;;;8.88;5.40;;;;;;;8.30;100.00;101112.81;4911249;29;20051;-66
2022/10/21 08:04:01;;;;;;;10.90;5.90;;;;;;;8.24;100.00;101105.47;4875592;29;20127;-65
2022/10/21 08:06:27;;;;;;;11.23;5.78;;;;;;;8.34;100.00;101111.44;4892437;29;20048;-66
2022/10/21 08:08:56;;;;;;;13.32;5.78;;;;;;;8.33;100.00;101112.47;4877559;29;20583;-64
2022/10/21 08:11:31;;;;;;;10.75;5.45;;;;;;;8.41;100.00;101109.78;4877609;29;20047;-66
2022/10/21 08:13:57;;;;;;;11.40;5.70;;;;;;;8.40;100.00;101101.91;4895976;29;20477;-66
2022/10/21 08:16:23;;;;;;;14.65;5.45;;;;;;;8.37;100.00;101103.06;4880827;29;20028;-68
2022/10/21 08:18:49;;;;;;;10.27;5.53;;;;;;;8.44;100.00;101093.34;4876862;29;20045;-66
2022/10/21 08:21:15;;;;;;;11.57;5.45;;;;;;;8.41;100.00;101093.69;4888384;29;20036;-66
2022/10/21 08:23:40;;;;;;;7.68;5.25;;;;;;;8.23;100.00;101059.06;4880053;29;20057;-65
2022/10/21 08:26:10;;;;;;;11.55;5.25;;;;;;;8.36;100.00;101089.84;4895850;29;20036;-67
2022/10/21 08:28:35;;;;;;;9.73;5.10;;;;;;;8.47;100.00;101092.97;4895477;29;20052;-66
2022/10/21 08:31:03;;;;;;;9.70;5.00;;;;;;;8.49;100.00;101094.66;4871845;29;20037;-67
2022/10/21 08:33:29;;;;;;;10.63;5.15;;;;;;;8.57;100.00;101098.09;4874560;29;20644;-68
2022/10/21 08:35:54;;;;;;;11.85;5.38;;;;;;;8.58;100.00;101098.94;4949273;28;20043;-67
2022/10/21 08:38:20;;;;;;;9.38;5.22;;;;;;;8.59;100.00;101073.78;4955871;29;20475;-67
2022/10/21 08:40:47;;;;;;;9.90;5.57;;;;;;;8.66;100.00;101090.81;4938796;29;20380;-67
2022/10/21 08:43:23;;;;;;;11.77;4.93;;;;;;;8.67;100.00;101089.81;4955914;29;20035;-67
2022/10/21 08:45:56;;;;;;;12.70;5.50;;;;;;;8.78;100.00;101091.25;4955745;29;20078;-68
2022/10/21 08:48:30;;;;;;;11.45;5.05;;;;;;;8.73;100.00;101096.31;4940552;29;20077;-66
2022/10/21 08:50:56;;;;;;;16.73;5.60;;;;;;;8.77;100.00;101100.28;4938540;29;20514;-67
2022/10/21 08:53:28;;;;;;;11.18;4.70;;;;;;;8.76;100.00;101096.78;4955652;29;20319;-66
2022/10/21 08:56:01;;;;;;;8.70;4.32;;;;;;;8.74;100.00;101093.47;4938380;29;20027;-66
2022/10/21 08:58:26;;;;;;;10.70;4.82;;;;;;;8.88;100.00;101092.66;4955579;29;20512;-66
2022/10/21 09:00:58;;;;;;;11.40;5.28;;;;;;;8.85;100.00;101089.50;4938276;29;20053;-66
2022/10/21 09:03:43;;;;;;;8.57;5.00;;;;;;;8.96;100.00;101097.13;4955491;29;20027;-66
2022/10/21 09:06:23;;;;;;;;;;;;;;;8.89;100.00;101102.38;4938576;29;20039;-66
2022/10/21 09:09:10;;;;;;;8.48;4.70;;;;;;;8.88;100.00;101105.25;4938175;29;20297;-66
2022/10/21 09:11:57;;;;;;;7.68;4.60;;;;;;;8.90;100.00;101093.28;4955353;29;20035;-66
2022/10/21 09:14:43;;;;;;;7.40;5.00;;;;;;;9.08;100.00;101094.84;4940144;29;20054;-66
2022/10/21 09:17:27;;;;;;;14.52;4.93;;;;;;;9.12;100.00;101096.13;4955462;29;20035;-66
2022/10/21 09:20:20;;;;;;;7.32;4.97;;;;;;;9.15;100.00;101093.09;4955151;29;20517;-66
2022/10/21 09:22:51;;;;;;;9.02;4.80;;;;;;;9.25;100.00;101095.50;4953831;28;20037;-66
2022/10/21 09:25:38;;;;;;;8.20;5.00;;;;;;;9.24;100.00;101094.69;4955090;29;20035;-65
2022/10/21 09:28:15;;;;;;;7.60;4.95;;;;;;;9.19;100.00;101097.06;4954913;29;20479;-65
2022/10/21 09:30:42;;;;;;;8.02;4.65;;;;;;;9.04;100.00;101053.25;4954816;29;20072;-66
2022/10/21 09:33:27;;;;;;;11.00;4.97;;;;;;;9.18;100.00;101068.56;4955001;29;20054;-67
2022/10/21 09:36:15;;;;;;;9.88;4.78;;;;;;;9.35;100.00;101094.22;4954947;29;20498;-67
2022/10/21 09:38:43;;;;;;;13.35;4.70;;;;;;;9.32;100.00;101091.06;4941843;29;20035;-66
2022/10/21 09:41:51;;;;;;;6.40;4.55;;;;;;;9.37;100.00;101089.50;4955028;28;20079;-67
2022/10/21 09:44:20;;;;;;;8.30;4.47;;;;;;;9.31;100.00;101079.50;4937075;29;20439;-68
2022/10/21 09:46:47;;;;;;;10.15;4.65;;;;;;;9.33;100.00;101093.56;4954894;29;20089;-69
2022/10/21 09:49:19;;;;;;;9.43;4.65;;;;;;;9.36;100.00;101082.44;4937191;29;20046;-69
2022/10/21 09:51:45;;;;;;;7.97;4.70;;;;;;;9.43;100.00;101087.91;4937683;29;20042;-68
2022/10/21 09:54:15;;;;;;;9.52;4.80;;;;;;;9.29;100.00;101072.63;4954145;28;20047;-68
2022/10/21 09:56:51;;;;;;;8.35;4.85;;;;;;;9.35;100.00;101086.16;4937382;29;20081;-67
2022/10/21 09:59:20;;;;;;;9.77;4.38;;;;;;;9.41;100.00;101090.81;4954540;29;20034;-68
2022/10/21 10:01:47;;;;;;;8.95;4.78;;;;;;;9.34;100.00;101094.41;4954913;29;20030;-68
2022/10/21 10:04:22;;;;;;;7.63;4.55;;;;;;;9.40;100.00;101088.28;4954429;28;20023;-68
2022/10/21 10:06:48;;;;;;;12.75;4.80;;;;;;;9.40;100.00;101086.47;4937362;29;20031;-67
2022/10/21 10:09:36;;;;;;;9.40;4.20;;;;;;;9.29;100.00;101084.22;4954392;28;20043;-67
2022/10/21 10:12:03;;;;;;;8.85;4.88;;;;;;;9.42;100.00;101086.25;4954142;29;20498;-71
2022/10/21 10:14:45;;;;;;;9.57;4.85;;;;;;;9.44;100.00;101083.38;4954342;29;20050;-70
2022/10/21 10:17:20;;;;;;;9.60;4.57;;;;;;;9.51;100.00;101073.59;4936818;29;20050;-70
2022/10/21 10:20:03;;;;;;;;;;;;;;;9.58;100.00;101074.50;4954625;28;20117;-69
2022/10/21 10:22:57;;;;;;;8.40;4.80;;;;;;;9.70;100.00;101070.34;4922611;29;20387;-70
2022/10/21 10:25:25;;;;;;;9.75;4.57;;;;;;;9.80;100.00;101072.72;4936711;29;20037;-70
2022/10/21 10:28:01;;;;;;;9.75;4.03;;;;;;;10.02;100.00;101070.91;4953950;29;20516;-70
2022/10/21 10:30:44;;;;;;;7.90;4.10;;;;;;;10.16;100.00;101066.53;4939131;29;20055;-68
2022/10/21 10:33:31;;;;;;;12.13;4.40;;;;;;;10.31;100.00;101072.72;4953846;28;20035;-68
2022/10/21 10:36:24;;;;;;;8.00;4.00;;;;;;;10.15;100.00;101071.06;4953677;29;20062;-69
2022/10/21 10:39:14;;;;;;;10.23;4.28;;;;;;;10.35;100.00;101065.94;4953904;29;20046;-69
2022/10/21 10:41:46;;;;;;;9.93;4.03;;;;;;;10.41;100.00;101067.88;4937597;29;20031;-70
2022/10/21 10:44:38;;;;;;;8.13;4.40;;;;;;;10.29;100.00;101070.22;4936894;29;20039;-70
2022/10/21 10:47:25;;;;;;;8.95;4.60;;;;;;;10.05;100.00;101038.28;4953727;29;20118;-72
2022/10/21 10:49:51;;;;;;;11.88;4.30;;;;;;;10.18;100.00;101054.56;4878543;29;20041;-71
2022/10/21 10:52:23;;;;;;;9.90;4.75;;;;;;;10.12;100.00;101050.75;4878628;29;20609;-71
2022/10/21 10:55:10;;;;;;;8.05;4.65;;;;;;;10.30;100.00;101053.06;4894410;29;20048;-70
2022/10/21 10:57:39;;;;;;;7.60;4.35;;;;;;;10.21;100.00;101021.09;4878203;29;20168;-71
2022/10/21 11:00:15;;;;;;;10.27;4.70;;;;;;;10.21;100.00;101035.34;4894096;29;20406;-71
2022/10/21 11:03:04;;;;;;;7.10;4.72;;;;;;;10.38;100.00;101056.66;4874168;29;20025;-71
2022/10/21 11:05:50;;;;;;;9.57;4.80;;;;;;;10.29;100.00;101051.38;4830719;29;20057;-71
2022/10/21 11:08:35;;;;;;;9.18;4.88;;;;;;;10.38;100.00;101045.91;4830019;29;20046;-71
2022/10/21 11:11:05;;;;;;;8.68;4.75;;;;;;;10.43;100.00;101044.31;4837325;29;20057;-71
2022/10/21 11:13:33;;;;;;;10.52;5.60;;;;;;;10.59;100.00;101040.50;4837351;29;20080;-71
2022/10/21 11:16:35;;;;;;;10.75;5.35;;;;;;;10.53;100.00;101030.53;4837248;29;20126;-72
2022/10/21 11:19:15;;;;;;;8.38;4.90;;;;;;;10.44;100.00;101031.69;4837334;29;20049;-71
2022/10/21 11:21:50;;;;;;;8.40;4.85;;;;;;;10.33;100.00;101031.19;4881768;29;20885;-71
2022/10/21 11:24:32;;;;;;;8.10;5.00;;;;;;;10.39;100.00;101034.09;4877281;29;20200;-71
2022/10/21 11:27:05;;;;;;;9.48;5.13;;;;;;;10.53;100.00;101030.53;4869897;29;20033;-71
2022/10/21 11:29:34;;;;;;;13.07;5.30;;;;;;;10.39;100.00;101039.47;4888426;29;20052;-71
2022/10/21 11:32:24;;;;;;;7.28;5.10;;;;;;;10.30;100.00;101025.34;4879858;29;20522;-71
2022/10/21 11:35:15;;;;;;;8.57;5.15;;;;;;;10.32;100.00;101034.88;4861548;29;20112;-71
2022/10/21 11:38:17;;;;;;;11.77;5.85;;;;;;;10.19;100.00;101023.94;4931676;29;20167;-71
2022/10/21 11:40:55;;;;;;;7.93;5.10;;;;;;;10.27;100.00;101029.25;4910286;29;20063;-71